Time,TemperatureF,DewpointF,PressureIn,WindDirection,WindDirectionDegrees,WindSpeedMPH,WindSpeedGustMPH,Humidity,HourlyPrecipIn,Conditions,Clouds,dailyrainin,SoftwareType,DateUTC
2013-01-13 00:00:00,58.4,53.3,30.11,SW,232,0.0,0.0,83,0.00,,---,0.01,VWS V14.01,2013-01-13 05:00:00,
2013-01-13 00:01:00,58.4,53.6,30.11,SW,232,0.0,0.0,84,0.00,,---,0.00,VWS V14.01,2013-01-13 05:01:00,
2013-01-13 00:02:00,58.4,53.6,30.11,SW,232,0.0,0.0,84,0.00,,---,0.00,VWS V14.01,2013-01-13 05:02:00,
2013-01-13 00:07:00,58.7,53.9,30.11,SW,232,0.0,0.0,84,0.00,,---,0.00,VWS V14.01,2013-01-13 05:07:00,
2013-01-13 00:12:00,58.8,54.0,30.11,SW,232,0.0,0.0,84,0.00,,---,0.00,VWS V14.01,2013-01-13 05:12:00,
2013-01-13 00:17:00,60.3,55.8,30.11,SW,236,0.0,0.0,85,0.00,,---,0.00,VWS V14.01,2013-01-13 05:17:00,
2013-01-13 00:22:00,61.2,56.7,30.11,SW,236,0.0,0.0,85,0.00,,---,0.00,VWS V14.01,2013-01-13 05:22:00,
2013-01-13 00:27:00,61.2,56.0,30.11,SW,236,0.0,0.0,83,0.00,,---,0.00,VWS V14.01,2013-01-13 05:27:00,
2013-01-13 00:30:00,61.1,55.9,30.11,SW,236,0.0,0.0,83,0.00,,---,0.00,VWS V14.01,2013-01-13 05:30:00,
2013-01-13 00:32:00,61.2,56.0,30.11,SW,236,0.0,0.0,83,0.00,,---,0.00,VWS V14.01,2013-01-13 05:32:00,
2013-01-13 00:37:00,61.6,56.7,30.11,West,259,0.0,0.0,84,0.00,,---,0.00,VWS V14.01,2013-01-13 05:37:00,
2013-01-13 00:42:00,61.9,57.0,30.11,West,259,0.0,0.0,84,0.00,,---,0.00,VWS V14.01,2013-01-13 05:42:00,
2013-01-13 00:47:00,61.8,56.6,30.11,West,259,0.0,0.0,83,0.00,,---,0.00,VWS V14.01,2013-01-13 05:47:00,
2013-01-13 00:52:00,61.9,56.7,30.11,West,259,0.0,0.0,83,0.00,,---,0.00,VWS V14.01,2013-01-13 05:52:00,
2013-01-13 00:57:00,61.8,56.6,30.11,West,259,0.0,0.0,83,0.00,,---,0.00,VWS V14.01,2013-01-13 05:57:00,
2013-01-13 01:00:00,61.8,56.6,30.11,West,259,0.0,0.0,83,0.00,,---,0.00,VWS V14.01,2013-01-13 06:00:00,
2013-01-13 01:02:00,61.8,56.6,30.11,West,259,0.0,0.0,83,0.00,,---,0.00,VWS V14.01,2013-01-13 06:02:00,
2013-01-13 01:07:00,61.7,56.5,30.10,West,259,0.0,0.0,83,0.00,,---,0.00,VWS V14.01,2013-01-13 06:07:00,
2013-01-13 01:12:00,61.8,56.6,30.10,West,259,0.0,0.0,83,0.00,,---,0.00,VWS V14.01,2013-01-13 06:12:00,
2013-01-13 01:17:00,62.0,56.8,30.10,WSW,254,0.0,0.0,83,0.00,,---,0.00,VWS V14.01,2013-01-13 06:17:00,
2013-01-13 01:22:00,62.1,56.9,30.10,WSW,254,0.0,0.0,83,0.00,,---,0.00,VWS V14.01,2013-01-13 06:22:00,
2013-01-13 01:27:00,61.7,56.2,30.10,WSW,254,0.0,0.0,82,0.00,,---,0.00,VWS V14.01,2013-01-13 06:27:00,
2013-01-13 01:30:00,61.3,55.8,30.10,WSW,254,0.0,0.0,82,0.00,,---,0.00,VWS V14.01,2013-01-13 06:30:00,
2013-01-13 01:31:00,61.3,55.8,30.10,WSW,254,0.0,0.0,82,0.00,,---,0.00,VWS V14.01,2013-01-13 06:31:00,
2013-01-13 01:36:00,61.0,55.8,30.10,WSW,254,0.0,0.0,83,0.00,,---,0.00,VWS V14.01,2013-01-13 06:36:00,
2013-01-13 01:41:00,60.9,55.4,30.10,WSW,254,0.0,0.0,82,0.00,,---,0.00,VWS V14.01,2013-01-13 06:41:00,
2013-01-13 01:46:00,60.7,55.2,30.10,WSW,254,0.0,0.0,82,0.00,,---,0.00,VWS V14.01,2013-01-13 06:46:00,
2013-01-13 01:51:00,60.4,55.2,30.10,WSW,254,0.0,0.0,83,0.00,,---,0.00,VWS V14.01,2013-01-13 06:51:00,
2013-01-13 01:56:00,60.0,54.5,30.10,WSW,254,0.0,0.0,82,0.00,,---,0.00,VWS V14.01,2013-01-13 06:56:00,
2013-01-13 02:00:00,59.7,54.2,30.10,WSW,254,0.0,0.0,82,0.00,,---,0.00,VWS V14.01,2013-01-13 07:00:00,
2013-01-13 02:01:00,59.6,54.1,30.10,WSW,254,0.0,0.0,82,0.00,,---,0.00,VWS V14.01,2013-01-13 07:01:00,
2013-01-13 02:06:00,59.4,53.9,30.10,WSW,254,0.0,0.0,82,0.00,,---,0.00,VWS V14.01,2013-01-13 07:06:00,
2013-01-13 02:11:00,59.5,54.3,30.10,WSW,254,0.0,0.0,83,0.00,,---,0.00,VWS V14.01,2013-01-13 07:11:00,
2013-01-13 02:16:00,59.4,54.2,30.11,WSW,254,0.0,0.0,83,0.00,,---,0.00,VWS V14.01,2013-01-13 07:16:00,
2013-01-13 02:21:00,59.3,54.2,30.11,WSW,254,0.0,0.0,83,0.00,,---,0.00,VWS V14.01,2013-01-13 07:21:00,
2013-01-13 02:26:00,59.3,54.2,30.11,WSW,254,0.0,0.0,83,0.00,,---,0.00,VWS V14.01,2013-01-13 07:26:00,
2013-01-13 02:30:00,59.5,54.3,30.11,WSW,254,0.0,0.0,83,0.00,,---,0.00,VWS V14.01,2013-01-13 07:30:00,
2013-01-13 02:31:00,59.5,54.3,30.11,WSW,254,0.0,0.0,83,0.00,,---,0.00,VWS V14.01,2013-01-13 07:31:00,
2013-01-13 02:36:00,59.9,55.1,30.11,WSW,255,0.0,0.0,84,0.00,,---,0.00,VWS V14.01,2013-01-13 07:36:00,
2013-01-13 02:41:00,60.3,55.5,30.11,WSW,253,0.0,0.0,84,0.00,,---,0.00,VWS V14.01,2013-01-13 07:41:00,
2013-01-13 02:46:00,60.9,56.0,30.11,WSW,257,0.0,0.0,84,0.00,,---,0.00,VWS V14.01,2013-01-13 07:46:00,
2013-01-13 02:51:00,61.6,56.7,30.11,WSW,244,0.0,0.0,84,0.00,,---,0.00,VWS V14.01,2013-01-13 07:51:00,
2013-01-13 02:56:00,62.1,57.2,30.11,West,269,0.0,0.0,84,0.00,,---,0.00,VWS V14.01,2013-01-13 07:56:00,
2013-01-13 03:00:00,62.3,57.4,30.11,WSW,257,0.0,0.0,84,0.00,,---,0.00,VWS V14.01,2013-01-13 08:00:00,
2013-01-13 03:01:00,62.4,57.2,30.11,WSW,257,0.0,0.0,83,0.00,,---,0.00,VWS V14.01,2013-01-13 08:01:00,
2013-01-13 03:06:00,62.5,57.3,30.11,SW,234,0.0,0.0,83,0.00,,---,0.00,VWS V14.01,2013-01-13 08:06:00,
2013-01-13 03:11:00,62.6,57.4,30.11,SW,235,0.0,0.0,83,0.00,,---,0.00,VWS V14.01,2013-01-13 08:11:00,
2013-01-13 03:16:00,62.6,57.4,30.10,WSW,237,0.0,0.0,83,0.00,,---,0.00,VWS V14.01,2013-01-13 08:16:00,
2013-01-13 03:21:00,62.6,57.4,30.10,WSW,238,0.0,0.0,83,0.00,,---,0.00,VWS V14.01,2013-01-13 08:21:00,
2013-01-13 03:26:00,62.5,56.9,30.10,WSW,241,0.0,0.0,82,0.00,,---,0.00,VWS V14.01,2013-01-13 08:26:00,
2013-01-13 03:30:00,62.4,56.8,30.10,WSW,241,0.0,0.0,82,0.00,,---,0.00,VWS V14.01,2013-01-13 08:30:00,
2013-01-13 03:31:00,62.3,56.7,30.10,WSW,241,0.0,0.0,82,0.00,,---,0.00,VWS V14.01,2013-01-13 08:31:00,
2013-01-13 03:36:00,62.3,56.7,30.10,WSW,241,0.0,0.0,82,0.00,,---,0.00,VWS V14.01,2013-01-13 08:36:00,
2013-01-13 03:41:00,62.2,56.6,30.10,WSW,241,0.0,0.0,82,0.00,,---,0.00,VWS V14.01,2013-01-13 08:41:00,
2013-01-13 03:46:00,62.1,56.5,30.10,WSW,241,0.0,0.0,82,0.00,,---,0.00,VWS V14.01,2013-01-13 08:46:00,
2013-01-13 03:51:00,62.2,56.6,30.09,WSW,258,0.0,0.0,82,0.00,,---,0.00,VWS V14.01,2013-01-13 08:51:00,
2013-01-13 03:56:00,62.3,56.7,30.09,WSW,257,0.0,0.0,82,0.00,,---,0.00,VWS V14.01,2013-01-13 08:56:00,
2013-01-13 04:00:00,62.4,56.8,30.09,WSW,257,0.0,0.0,82,0.00,,---,0.00,VWS V14.01,2013-01-13 09:00:00,
2013-01-13 04:01:00,62.4,56.8,30.09,WSW,257,0.0,0.0,82,0.00,,---,0.00,VWS V14.01,2013-01-13 09:01:00,
2013-01-13 04:06:00,62.4,56.8,30.09,WSW,258,0.0,0.0,82,0.00,,---,0.00,VWS V14.01,2013-01-13 09:06:00,
2013-01-13 04:11:00,62.3,56.7,30.09,WSW,258,0.0,0.0,82,0.00,,---,0.00,VWS V14.01,2013-01-13 09:11:00,
2013-01-13 04:16:00,62.2,56.6,30.09,WSW,258,0.0,0.0,82,0.00,,---,0.00,VWS V14.01,2013-01-13 09:16:00,
2013-01-13 04:21:00,62.1,56.5,30.09,WSW,258,0.0,0.0,82,0.00,,---,0.00,VWS V14.01,2013-01-13 09:21:00,
2013-01-13 04:26:00,61.9,56.3,30.09,WSW,258,0.0,0.0,82,0.00,,---,0.00,VWS V14.01,2013-01-13 09:26:00,
2013-01-13 04:30:00,61.7,56.2,30.09,WSW,258,0.0,0.0,82,0.00,,---,0.00,VWS V14.01,2013-01-13 09:30:00,
2013-01-13 04:31:00,61.6,56.1,30.09,WSW,258,0.0,0.0,82,0.00,,---,0.00,VWS V14.01,2013-01-13 09:31:00,
2013-01-13 04:36:00,61.5,56.0,30.09,WSW,258,0.0,0.0,82,0.00,,---,0.00,VWS V14.01,2013-01-13 09:36:00,
2013-01-13 04:41:00,61.5,56.3,30.09,WSW,258,0.0,0.0,83,0.00,,---,0.00,VWS V14.01,2013-01-13 09:41:00,
2013-01-13 04:46:00,61.6,56.4,30.09,WSW,258,0.0,0.0,83,0.00,,---,0.00,VWS V14.01,2013-01-13 09:46:00,
2013-01-13 04:51:00,61.6,56.4,30.08,WSW,258,0.0,0.0,83,0.00,,---,0.00,VWS V14.01,2013-01-13 09:51:00,
2013-01-13 04:56:00,61.7,56.5,30.08,WSW,258,0.0,0.0,83,0.00,,---,0.00,VWS V14.01,2013-01-13 09:56:00,
2013-01-13 05:00:00,61.6,56.4,30.08,WSW,258,0.0,0.0,83,0.00,,---,0.00,VWS V14.01,2013-01-13 10:00:00,
2013-01-13 05:01:00,61.6,56.4,30.09,WSW,258,0.0,0.0,83,0.00,,---,0.00,VWS V14.01,2013-01-13 10:01:00,
2013-01-13 05:06:00,61.3,56.1,30.09,WSW,258,0.0,0.0,83,0.00,,---,0.00,VWS V14.01,2013-01-13 10:06:00,
2013-01-13 05:11:00,61.3,56.1,30.08,WSW,258,0.0,0.0,83,0.00,,---,0.00,VWS V14.01,2013-01-13 10:11:00,
2013-01-13 05:16:00,61.1,55.9,30.08,WSW,258,0.0,0.0,83,0.00,,---,0.00,VWS V14.01,2013-01-13 10:16:00,
2013-01-13 05:21:00,61.0,55.8,30.09,WSW,258,0.0,0.0,83,0.00,,---,0.00,VWS V14.01,2013-01-13 10:21:00,
2013-01-13 05:26:00,61.2,56.3,30.09,WSW,258,0.0,0.0,84,0.00,,---,0.00,VWS V14.01,2013-01-13 10:26:00,
2013-01-13 05:30:00,61.4,56.5,30.09,WSW,258,0.0,0.0,84,0.00,,---,0.00,VWS V14.01,2013-01-13 10:30:00,
2013-01-13 05:31:00,61.4,56.5,30.09,WSW,258,0.0,0.0,84,0.00,,---,0.00,VWS V14.01,2013-01-13 10:31:00,
2013-01-13 05:36:00,61.1,55.9,30.08,WSW,258,0.0,0.0,83,0.00,,---,0.00,VWS V14.01,2013-01-13 10:36:00,
2013-01-13 05:41:00,60.6,55.1,30.08,WSW,258,0.0,0.0,82,0.00,,---,0.00,VWS V14.01,2013-01-13 10:41:00,
2013-01-13 05:46:00,60.1,54.9,30.08,WSW,258,0.0,0.0,83,0.00,,---,0.00,VWS V14.01,2013-01-13 10:46:00,
2013-01-13 05:51:00,60.0,54.8,30.09,WSW,258,0.0,0.0,83,0.00,,---,0.00,VWS V14.01,2013-01-13 10:51:00,
2013-01-13 05:56:00,60.0,54.8,30.09,WSW,258,0.0,0.0,83,0.00,,---,0.00,VWS V14.01,2013-01-13 10:56:00,
2013-01-13 06:00:00,60.0,54.8,30.09,WSW,258,0.0,0.0,83,0.00,,---,0.00,VWS V14.01,2013-01-13 11:00:00,
2013-01-13 06:01:00,60.0,54.8,30.10,WSW,258,0.0,0.0,83,0.00,,---,0.00,VWS V14.01,2013-01-13 11:01:00,
2013-01-13 06:06:00,60.0,54.8,30.10,WSW,258,0.0,0.0,83,0.00,,---,0.00,VWS V14.01,2013-01-13 11:06:00,
2013-01-13 06:11:00,60.0,54.8,30.10,WSW,258,0.0,0.0,83,0.00,,---,0.00,VWS V14.01,2013-01-13 11:11:00,
2013-01-13 06:16:00,60.0,54.8,30.10,WSW,258,0.0,0.0,83,0.00,,---,0.00,VWS V14.01,2013-01-13 11:16:00,
2013-01-13 06:21:00,60.0,54.8,30.10,WSW,258,0.0,0.0,83,0.00,,---,0.00,VWS V14.01,2013-01-13 11:21:00,
2013-01-13 06:26:00,60.0,54.8,30.10,WSW,258,0.0,0.0,83,0.00,,---,0.00,VWS V14.01,2013-01-13 11:26:00,
2013-01-13 06:30:00,60.0,54.8,30.10,WSW,258,0.0,0.0,83,0.00,,---,0.00,VWS V14.01,2013-01-13 11:30:00,
2013-01-13 06:31:00,60.0,54.8,30.10,WSW,258,0.0,0.0,83,0.00,,---,0.00,VWS V14.01,2013-01-13 11:31:00,
2013-01-13 06:36:00,60.0,54.8,30.11,WSW,258,0.0,0.0,83,0.00,,---,0.00,VWS V14.01,2013-01-13 11:36:00,
2013-01-13 06:41:00,60.0,54.8,30.11,WSW,258,0.0,0.0,83,0.00,,---,0.00,VWS V14.01,2013-01-13 11:41:00,
2013-01-13 06:46:00,60.0,54.8,30.11,WSW,258,0.0,0.0,83,0.00,,---,0.00,VWS V14.01,2013-01-13 11:46:00,
2013-01-13 06:51:00,60.0,54.8,30.11,WSW,258,0.0,0.0,83,0.00,,---,0.00,VWS V14.01,2013-01-13 11:51:00,
2013-01-13 06:56:00,60.0,54.8,30.11,WSW,258,0.0,0.0,83,0.00,,---,0.00,VWS V14.01,2013-01-13 11:56:00,
2013-01-13 07:00:00,60.0,54.8,30.11,WSW,258,0.0,0.0,83,0.00,,---,0.00,VWS V14.01,2013-01-13 12:00:00,
2013-01-13 07:01:00,60.0,54.8,30.11,WSW,258,0.0,0.0,83,0.00,,---,0.00,VWS V14.01,2013-01-13 12:01:00,
2013-01-13 07:06:00,60.0,54.8,30.11,WSW,258,0.0,0.0,83,0.00,,---,0.00,VWS V14.01,2013-01-13 12:06:00,
2013-01-13 07:11:00,60.0,54.8,30.12,WSW,258,0.0,0.0,83,0.00,,---,0.00,VWS V14.01,2013-01-13 12:11:00,
2013-01-13 07:16:00,60.0,54.8,30.12,WSW,258,0.0,0.0,83,0.00,,---,0.00,VWS V14.01,2013-01-13 12:16:00,
2013-01-13 07:21:00,60.0,54.8,30.12,WSW,258,0.0,0.0,83,0.00,,---,0.00,VWS V14.01,2013-01-13 12:21:00,
2013-01-13 07:26:00,60.0,54.8,30.12,WSW,258,0.0,0.0,83,0.00,,---,0.00,VWS V14.01,2013-01-13 12:26:00,
2013-01-13 07:30:00,60.0,54.8,30.12,WSW,258,0.0,0.0,83,0.00,,---,0.00,VWS V14.01,2013-01-13 12:30:00,
2013-01-13 07:35:00,60.0,54.8,30.12,WSW,258,0.0,0.0,83,0.00,,---,0.00,VWS V14.01,2013-01-13 12:35:00,
2013-01-13 07:40:00,60.0,54.8,30.13,WSW,258,0.0,0.0,83,0.00,,---,0.00,VWS V14.01,2013-01-13 12:40:00,
2013-01-13 07:45:00,56.8,52.0,30.13,WSW,258,0.0,0.0,84,0.00,,---,0.00,VWS V14.01,2013-01-13 12:45:00,
2013-01-13 07:50:00,57.0,52.5,30.12,WSW,258,0.0,0.0,85,0.00,,---,0.00,VWS V14.01,2013-01-13 12:50:00,
2013-01-13 07:55:00,57.0,52.2,30.13,WSW,258,0.0,0.0,84,0.00,,---,0.00,VWS V14.01,2013-01-13 12:55:00,
2013-01-13 08:00:00,56.9,52.1,30.13,WSW,258,0.0,0.0,84,0.00,,---,0.00,VWS V14.01,2013-01-13 13:00:00,
2013-01-13 08:05:00,56.8,52.0,30.14,WSW,258,0.0,0.0,84,0.00,,---,0.00,VWS V14.01,2013-01-13 13:05:00,
2013-01-13 08:10:00,57.0,52.2,30.14,WSW,258,0.0,0.0,84,0.00,,---,0.00,VWS V14.01,2013-01-13 13:10:00,
2013-01-13 08:15:00,57.5,53.0,30.14,WSW,258,0.0,0.0,85,0.00,,---,0.00,VWS V14.01,2013-01-13 13:15:00,
2013-01-13 08:20:00,57.7,53.2,30.14,WSW,258,0.0,0.0,85,0.00,,---,0.00,VWS V14.01,2013-01-13 13:20:00,
2013-01-13 08:25:00,57.9,53.4,30.14,WSW,258,0.0,0.0,85,0.00,,---,0.00,VWS V14.01,2013-01-13 13:25:00,
2013-01-13 08:30:00,58.2,53.7,30.14,WSW,258,0.0,0.0,85,0.00,,---,0.00,VWS V14.01,2013-01-13 13:30:00,
2013-01-13 08:35:00,58.9,54.4,30.14,West,259,0.0,0.0,85,0.00,,---,0.00,VWS V14.01,2013-01-13 13:35:00,
2013-01-13 08:40:00,59.4,54.9,30.14,South,188,0.0,0.0,85,0.01,,---,0.01,VWS V14.01,2013-01-13 13:40:00,
2013-01-13 08:45:00,60.2,55.7,30.14,SSW,209,0.0,0.0,85,0.01,,---,0.01,VWS V14.01,2013-01-13 13:45:00,
2013-01-13 08:50:00,60.8,56.3,30.15,SSW,210,0.0,0.0,85,0.01,,---,0.01,VWS V14.01,2013-01-13 13:50:00,
2013-01-13 08:55:00,61.4,56.9,30.15,SSW,210,0.0,0.0,85,0.01,,---,0.01,VWS V14.01,2013-01-13 13:55:00,
2013-01-13 09:00:00,62.3,57.7,30.15,SSW,211,0.0,0.0,85,0.01,,---,0.01,VWS V14.01,2013-01-13 14:00:00,
2013-01-13 09:05:00,63.2,58.6,30.15,SSW,211,0.0,0.0,85,0.01,,---,0.01,VWS V14.01,2013-01-13 14:05:00,
2013-01-13 09:10:00,63.5,58.6,30.15,SW,215,0.0,0.0,84,0.01,,---,0.01,VWS V14.01,2013-01-13 14:10:00,
2013-01-13 09:15:00,63.3,57.7,30.15,SW,221,0.0,0.0,82,0.01,,---,0.01,VWS V14.01,2013-01-13 14:15:00,
2013-01-13 09:20:00,63.0,57.4,30.15,SW,221,0.0,0.0,82,0.01,,---,0.01,VWS V14.01,2013-01-13 14:20:00,
2013-01-13 09:25:00,64.4,59.5,30.16,SW,221,0.0,0.0,84,0.01,,---,0.01,VWS V14.01,2013-01-13 14:25:00,
2013-01-13 09:30:00,65.6,60.6,30.16,SW,221,0.0,0.0,84,0.01,,---,0.01,VWS V14.01,2013-01-13 14:30:00,
2013-01-13 09:35:00,66.2,60.9,30.16,SW,223,0.0,0.0,83,0.01,,---,0.01,VWS V14.01,2013-01-13 14:35:00,
2013-01-13 09:40:00,66.6,60.6,30.16,SW,223,0.0,0.0,81,0.01,,---,0.01,VWS V14.01,2013-01-13 14:40:00,
2013-01-13 09:45:00,67.3,61.3,30.16,SW,225,0.0,0.0,81,0.01,,---,0.01,VWS V14.01,2013-01-13 14:45:00,
2013-01-13 09:50:00,67.8,61.1,30.16,SW,227,0.0,0.0,79,0.01,,---,0.01,VWS V14.01,2013-01-13 14:50:00,
2013-01-13 09:55:00,68.1,60.6,30.16,SW,227,0.0,0.0,77,0.01,,---,0.01,VWS V14.01,2013-01-13 14:55:00,
2013-01-13 10:00:00,68.3,60.5,30.16,SW,227,0.0,0.0,76,0.01,,---,0.01,VWS V14.01,2013-01-13 15:00:00,
2013-01-13 10:05:00,68.6,60.4,30.16,SW,227,0.0,0.0,75,0.00,,---,0.01,VWS V14.01,2013-01-13 15:05:00,
2013-01-13 10:10:00,68.9,60.3,30.16,SW,231,0.0,0.0,74,0.00,,---,0.01,VWS V14.01,2013-01-13 15:10:00,
2013-01-13 10:15:00,68.4,58.2,30.16,SW,231,0.0,0.0,70,0.00,,---,0.01,VWS V14.01,2013-01-13 15:15:00,
2013-01-13 10:20:00,66.2,56.9,30.16,SW,232,0.0,0.0,72,0.00,,---,0.01,VWS V14.01,2013-01-13 15:20:00,
2013-01-13 10:25:00,65.4,56.5,30.16,SW,232,0.0,0.0,73,0.00,,---,0.01,VWS V14.01,2013-01-13 15:25:00,
2013-01-13 10:30:00,64.9,56.4,30.16,SW,232,0.0,0.0,74,0.00,,---,0.01,VWS V14.01,2013-01-13 15:30:00,
2013-01-13 10:35:00,63.7,55.3,30.16,SW,232,0.0,0.0,74,0.00,,---,0.01,VWS V14.01,2013-01-13 15:35:00,
2013-01-13 10:40:00,63.2,55.9,30.15,SW,232,0.0,0.0,77,0.00,,---,0.01,VWS V14.01,2013-01-13 15:40:00,
2013-01-13 10:45:00,63.4,56.8,30.15,West,270,0.0,0.0,79,0.00,,---,0.01,VWS V14.01,2013-01-13 15:45:00,
2013-01-13 10:50:00,64.0,57.4,30.15,WSW,246,0.0,5.0,79,0.00,,---,0.01,VWS V14.01,2013-01-13 15:50:00,
2013-01-13 10:55:00,66.1,59.8,30.15,WSW,244,8.0,9.0,80,0.00,,---,0.01,VWS V14.01,2013-01-13 15:55:00,
2013-01-13 11:00:00,68.8,60.2,30.15,South,174,5.0,9.0,74,0.00,,---,0.01,VWS V14.01,2013-01-13 16:00:00,
2013-01-13 11:05:00,66.5,56.0,30.14,SSW,201,0.0,5.0,69,0.00,,---,0.01,VWS V14.01,2013-01-13 16:05:00,
2013-01-13 11:10:00,65.4,56.5,30.14,SSE,157,4.0,10.0,73,0.00,,---,0.01,VWS V14.01,2013-01-13 16:10:00,
2013-01-13 11:15:00,63.8,55.4,30.14,South,187,0.0,10.0,74,0.00,,---,0.01,VWS V14.01,2013-01-13 16:15:00,
2013-01-13 11:20:00,63.9,56.2,30.13,South,181,4.0,10.0,76,0.00,,---,0.01,VWS V14.01,2013-01-13 16:20:00,
2013-01-13 11:25:00,63.4,55.7,30.13,South,183,0.0,10.0,76,0.00,,---,0.01,VWS V14.01,2013-01-13 16:25:00,
2013-01-13 11:30:00,63.4,56.4,30.13,SSW,203,4.0,10.0,78,0.00,,---,0.01,VWS V14.01,2013-01-13 16:30:00,
2013-01-13 11:35:00,63.5,56.5,30.13,SSW,202,4.0,7.0,78,0.00,,---,0.01,VWS V14.01,2013-01-13 16:35:00,
2013-01-13 11:40:00,63.6,56.6,30.13,SSW,209,5.0,9.0,78,0.00,,---,0.01,VWS V14.01,2013-01-13 16:40:00,
2013-01-13 11:45:00,63.9,57.3,30.13,SW,223,4.0,9.0,79,0.00,,---,0.01,VWS V14.01,2013-01-13 16:45:00,
2013-01-13 11:50:00,64.2,57.6,30.13,SW,215,3.0,9.0,79,0.00,,---,0.01,VWS V14.01,2013-01-13 16:50:00,
2013-01-13 11:55:00,64.8,58.1,30.12,SW,221,5.0,9.0,79,0.00,,---,0.01,VWS V14.01,2013-01-13 16:55:00,
2013-01-13 12:00:00,65.6,58.6,30.12,SW,219,5.0,9.0,78,0.00,,---,0.01,VWS V14.01,2013-01-13 17:00:00,
2013-01-13 12:05:00,66.2,58.8,30.12,SW,216,0.0,6.0,77,0.00,,---,0.01,VWS V14.01,2013-01-13 17:05:00,
2013-01-13 12:10:00,66.7,59.3,30.11,SW,216,0.0,6.0,77,0.00,,---,0.01,VWS V14.01,2013-01-13 17:10:00,
2013-01-13 12:15:00,67.6,59.8,30.11,South,178,0.0,6.0,76,0.00,,---,0.01,VWS V14.01,2013-01-13 17:15:00,
2013-01-13 12:20:00,68.5,59.9,30.10,SSW,202,5.0,6.0,74,0.00,,---,0.01,VWS V14.01,2013-01-13 17:20:00,
2013-01-13 12:25:00,68.6,59.6,30.10,SSW,205,7.0,7.0,73,0.00,,---,0.01,VWS V14.01,2013-01-13 17:25:00,
2013-01-13 12:30:00,69.4,60.0,30.10,SW,215,7.0,9.0,72,0.00,,---,0.01,VWS V14.01,2013-01-13 17:30:00,
2013-01-13 12:35:00,69.6,59.4,30.10,SSW,213,8.0,12.0,70,0.00,,---,0.01,VWS V14.01,2013-01-13 17:35:00,
2013-01-13 12:40:00,69.1,59.3,30.10,SW,229,4.0,12.0,71,0.00,,---,0.01,VWS V14.01,2013-01-13 17:40:00,
2013-01-13 12:45:00,69.2,59.4,30.10,SW,221,5.0,12.0,71,0.00,,---,0.01,VWS V14.01,2013-01-13 17:45:00,
2013-01-13 12:50:00,69.2,59.4,30.10,SW,225,7.0,12.0,71,0.00,,---,0.01,VWS V14.01,2013-01-13 17:50:00,
2013-01-13 12:55:00,69.5,59.7,30.09,SW,215,4.0,12.0,71,0.00,,---,0.01,VWS V14.01,2013-01-13 17:55:00,
2013-01-13 13:00:00,69.4,59.2,30.09,SSW,210,6.0,12.0,70,0.00,,---,0.01,VWS V14.01,2013-01-13 18:00:00,
2013-01-13 13:05:00,69.0,58.8,30.09,SW,218,7.0,11.0,70,0.00,,---,0.01,VWS V14.01,2013-01-13 18:05:00,
2013-01-13 13:10:00,68.7,58.5,30.09,SSW,213,1.0,11.0,70,0.00,,---,0.01,VWS V14.01,2013-01-13 18:10:00,
2013-01-13 13:15:00,68.5,58.3,30.09,SSW,213,4.0,11.0,70,0.00,,---,0.01,VWS V14.01,2013-01-13 18:15:00,
2013-01-13 13:20:00,68.1,58.0,30.09,SSW,213,6.0,11.0,70,0.00,,---,0.01,VWS V14.01,2013-01-13 18:20:00,
2013-01-13 13:25:00,67.8,57.7,30.09,SW,220,1.0,11.0,70,0.00,,---,0.01,VWS V14.01,2013-01-13 18:25:00,
2013-01-13 13:30:00,67.8,57.7,30.08,SW,223,7.0,11.0,70,0.00,,---,0.01,VWS V14.01,2013-01-13 18:30:00,
2013-01-13 13:35:00,67.9,57.4,30.08,SW,225,0.0,10.0,69,0.00,,---,0.01,VWS V14.01,2013-01-13 18:35:00,
2013-01-13 13:40:00,68.1,57.6,30.08,SW,225,7.0,10.0,69,0.00,,---,0.01,VWS V14.01,2013-01-13 18:40:00,
2013-01-13 13:45:00,68.0,57.1,30.08,SW,225,5.0,10.0,68,0.00,,---,0.01,VWS V14.01,2013-01-13 18:45:00,
2013-01-13 13:50:00,68.0,57.5,30.08,SW,236,5.0,10.0,69,0.00,,---,0.01,VWS V14.01,2013-01-13 18:50:00,
2013-01-13 13:55:00,68.5,57.5,30.08,WSW,242,0.0,10.0,68,0.00,,---,0.01,VWS V14.01,2013-01-13 18:55:00,
2013-01-13 14:00:00,68.9,57.9,30.08,WSW,243,0.0,10.0,68,0.00,,---,0.01,VWS V14.01,2013-01-13 19:00:00,
2013-01-13 14:05:00,68.6,57.2,30.08,WSW,243,0.0,0.0,67,0.00,,---,0.01,VWS V14.01,2013-01-13 19:05:00,
2013-01-13 14:10:00,68.2,56.8,30.07,WSW,243,0.0,0.0,67,0.00,,---,0.01,VWS V14.01,2013-01-13 19:10:00,
2013-01-13 14:15:00,68.2,57.2,30.07,WSW,249,0.0,0.0,68,0.00,,---,0.01,VWS V14.01,2013-01-13 19:15:00,
2013-01-13 14:20:00,68.4,57.0,30.07,WSW,242,0.0,0.0,67,0.00,,---,0.01,VWS V14.01,2013-01-13 19:20:00,
2013-01-13 14:25:00,68.8,57.4,30.08,WSW,244,0.0,0.0,67,0.00,,---,0.01,VWS V14.01,2013-01-13 19:25:00,
2013-01-13 14:30:00,68.5,57.1,30.08,SW,225,0.0,0.0,67,0.00,,---,0.01,VWS V14.01,2013-01-13 19:30:00,
2013-01-13 14:35:00,68.1,56.7,30.08,SSW,205,0.0,0.0,67,0.00,,---,0.01,VWS V14.01,2013-01-13 19:35:00,
2013-01-13 14:40:00,66.7,55.8,30.08,SSW,207,0.0,0.0,68,0.00,,---,0.01,VWS V14.01,2013-01-13 19:40:00,
2013-01-13 14:45:00,66.3,55.8,30.08,SW,218,0.0,0.0,69,0.00,,---,0.01,VWS V14.01,2013-01-13 19:45:00,
2013-01-13 14:50:00,66.3,56.2,30.08,SW,227,0.0,0.0,70,0.00,,---,0.01,VWS V14.01,2013-01-13 19:50:00,
2013-01-13 14:55:00,66.7,57.0,30.08,SW,227,0.0,0.0,71,0.00,,---,0.01,VWS V14.01,2013-01-13 19:55:00,
2013-01-13 15:00:00,67.4,57.3,30.08,SW,227,0.0,0.0,70,0.00,,---,0.01,VWS V14.01,2013-01-13 20:00:00,
2013-01-13 15:04:00,68.3,58.2,30.08,SW,227,0.0,0.0,70,0.00,,---,0.01,VWS V14.01,2013-01-13 20:04:00,
2013-01-13 15:09:00,68.0,57.1,30.09,SW,215,0.0,0.0,68,0.00,,---,0.01,VWS V14.01,2013-01-13 20:09:00,
2013-01-13 15:14:00,66.4,56.3,30.09,SW,218,0.0,0.0,70,0.00,,---,0.01,VWS V14.01,2013-01-13 20:14:00,
2013-01-13 15:19:00,64.9,55.7,30.09,SW,215,0.0,0.0,72,0.00,,---,0.01,VWS V14.01,2013-01-13 20:19:00,
2013-01-13 15:24:00,63.7,56.0,30.09,SW,217,0.0,0.0,76,0.00,,---,0.01,VWS V14.01,2013-01-13 20:24:00,
2013-01-13 15:29:00,63.3,56.0,30.09,SW,225,0.0,0.0,77,0.00,,---,0.01,VWS V14.01,2013-01-13 20:29:00,
2013-01-13 15:30:00,63.2,55.9,30.09,SW,223,0.0,0.0,77,0.00,,---,0.01,VWS V14.01,2013-01-13 20:30:00,
2013-01-13 15:34:00,63.2,56.2,30.09,SW,223,0.0,0.0,78,0.00,,---,0.01,VWS V14.01,2013-01-13 20:34:00,
2013-01-13 15:39:00,63.2,56.2,30.09,SW,214,0.0,0.0,78,0.00,,---,0.01,VWS V14.01,2013-01-13 20:39:00,
2013-01-13 15:44:00,63.2,56.2,30.09,SW,217,0.0,0.0,78,0.00,,---,0.01,VWS V14.01,2013-01-13 20:44:00,
2013-01-13 15:49:00,63.4,56.4,30.10,SW,219,0.0,0.0,78,0.00,,---,0.01,VWS V14.01,2013-01-13 20:49:00,
2013-01-13 15:54:00,63.8,56.8,30.10,SW,219,0.0,0.0,78,0.00,,---,0.01,VWS V14.01,2013-01-13 20:54:00,
2013-01-13 15:59:00,64.0,57.0,30.10,SW,223,0.0,0.0,78,0.00,,---,0.01,VWS V14.01,2013-01-13 20:59:00,
2013-01-13 16:00:00,64.0,57.0,30.10,SW,219,0.0,0.0,78,0.00,,---,0.01,VWS V14.01,2013-01-13 21:00:00,
2013-01-13 16:04:00,63.9,56.6,30.10,SW,227,0.0,0.0,77,0.00,,---,0.01,VWS V14.01,2013-01-13 21:04:00,
2013-01-13 16:09:00,64.0,57.0,30.10,SW,219,0.0,0.0,78,0.00,,---,0.01,VWS V14.01,2013-01-13 21:09:00,
2013-01-13 16:14:00,64.2,56.8,30.10,SSW,211,0.0,0.0,77,0.00,,---,0.01,VWS V14.01,2013-01-13 21:14:00,
2013-01-13 16:19:00,63.9,56.6,30.11,SW,218,0.0,0.0,77,0.00,,---,0.01,VWS V14.01,2013-01-13 21:19:00,
2013-01-13 16:24:00,63.7,56.4,30.11,SW,221,0.0,0.0,77,0.00,,---,0.01,VWS V14.01,2013-01-13 21:24:00,
2013-01-13 16:29:00,63.4,56.1,30.11,SW,220,0.0,0.0,77,0.00,,---,0.01,VWS V14.01,2013-01-13 21:29:00,
2013-01-13 16:30:00,63.4,56.4,30.11,SW,220,0.0,0.0,78,0.00,,---,0.01,VWS V14.01,2013-01-13 21:30:00,
2013-01-13 16:34:00,63.4,56.4,30.11,SW,220,0.0,0.0,78,0.00,,---,0.01,VWS V14.01,2013-01-13 21:34:00,
2013-01-13 16:39:00,63.2,56.2,30.11,SW,218,0.0,0.0,78,0.00,,---,0.01,VWS V14.01,2013-01-13 21:39:00,
2013-01-13 16:44:00,63.0,56.0,30.11,SW,223,0.0,0.0,78,0.00,,---,0.01,VWS V14.01,2013-01-13 21:44:00,
2013-01-13 16:49:00,62.8,55.8,30.11,SW,215,0.0,0.0,78,0.00,,---,0.01,VWS V14.01,2013-01-13 21:49:00,
2013-01-13 16:54:00,62.4,55.5,30.11,SSW,211,0.0,0.0,78,0.00,,---,0.01,VWS V14.01,2013-01-13 21:54:00,
2013-01-13 16:59:00,61.9,55.0,30.11,SW,223,0.0,0.0,78,0.00,,---,0.01,VWS V14.01,2013-01-13 21:59:00,
2013-01-13 17:00:00,61.6,55.0,30.11,SW,219,0.0,0.0,79,0.00,,---,0.01,VWS V14.01,2013-01-13 22:00:00,
2013-01-13 17:04:00,61.3,55.1,30.11,SW,219,0.0,0.0,80,0.00,,---,0.01,VWS V14.01,2013-01-13 22:04:00,
2013-01-13 17:09:00,61.1,54.9,30.11,SW,225,0.0,0.0,80,0.00,,---,0.01,VWS V14.01,2013-01-13 22:09:00,
2013-01-13 17:14:00,60.8,54.9,30.11,SW,214,0.0,0.0,81,0.00,,---,0.01,VWS V14.01,2013-01-13 22:14:00,
2013-01-13 17:19:00,60.7,54.8,30.11,SW,221,0.0,0.0,81,0.00,,---,0.01,VWS V14.01,2013-01-13 22:19:00,
2013-01-13 17:24:00,60.8,55.3,30.11,SW,225,0.0,0.0,82,0.00,,---,0.01,VWS V14.01,2013-01-13 22:24:00,
2013-01-13 17:29:00,60.7,55.2,30.11,SW,223,0.0,0.0,82,0.00,,---,0.01,VWS V14.01,2013-01-13 22:29:00,
2013-01-13 17:30:00,60.7,55.2,30.11,SW,218,0.0,0.0,82,0.00,,---,0.01,VWS V14.01,2013-01-13 22:30:00,
2013-01-13 17:34:00,60.5,55.0,30.11,SW,220,0.0,0.0,82,0.00,,---,0.01,VWS V14.01,2013-01-13 22:34:00,
2013-01-13 17:39:00,60.3,54.8,30.11,SW,215,0.0,0.0,82,0.00,,---,0.01,VWS V14.01,2013-01-13 22:39:00,
2013-01-13 17:44:00,60.1,54.6,30.11,SW,222,0.0,0.0,82,0.00,,---,0.01,VWS V14.01,2013-01-13 22:44:00,
2013-01-13 17:49:00,60.0,54.5,30.11,SW,229,0.0,0.0,82,0.00,,---,0.01,VWS V14.01,2013-01-13 22:49:00,
2013-01-13 17:54:00,60.0,54.5,30.11,SW,223,0.0,0.0,82,0.00,,---,0.01,VWS V14.01,2013-01-13 22:54:00,
2013-01-13 17:59:00,60.0,54.5,30.12,SW,223,0.0,0.0,82,0.00,,---,0.01,VWS V14.01,2013-01-13 22:59:00,
2013-01-13 18:00:00,60.0,54.5,30.11,SW,224,0.0,0.0,82,0.00,,---,0.01,VWS V14.01,2013-01-13 23:00:00,
2013-01-13 18:04:00,60.0,54.8,30.11,SW,224,0.0,0.0,83,0.00,,---,0.01,VWS V14.01,2013-01-13 23:04:00,
2013-01-13 18:09:00,60.0,54.8,30.12,SW,229,0.0,0.0,83,0.00,,---,0.01,VWS V14.01,2013-01-13 23:09:00,
2013-01-13 18:14:00,60.0,54.8,30.12,SW,234,0.0,0.0,83,0.00,,---,0.01,VWS V14.01,2013-01-13 23:14:00,
2013-01-13 18:19:00,60.1,54.9,30.12,SW,222,0.0,0.0,83,0.00,,---,0.01,VWS V14.01,2013-01-13 23:19:00,
2013-01-13 18:24:00,60.1,54.9,30.11,SW,223,0.0,0.0,83,0.00,,---,0.01,VWS V14.01,2013-01-13 23:24:00,
2013-01-13 18:29:00,60.1,54.9,30.11,SW,225,0.0,0.0,83,0.00,,---,0.01,VWS V14.01,2013-01-13 23:29:00,
2013-01-13 18:30:00,60.1,54.9,30.11,SW,221,0.0,0.0,83,0.00,,---,0.01,VWS V14.01,2013-01-13 23:30:00,
2013-01-13 18:34:00,60.1,54.9,30.11,SW,225,0.0,0.0,83,0.00,,---,0.01,VWS V14.01,2013-01-13 23:34:00,
2013-01-13 18:39:00,60.1,54.9,30.11,SW,222,0.0,0.0,83,0.00,,---,0.01,VWS V14.01,2013-01-13 23:39:00,
2013-01-13 18:44:00,60.0,54.8,30.11,SW,221,0.0,0.0,83,0.00,,---,0.01,VWS V14.01,2013-01-13 23:44:00,
2013-01-13 18:49:00,60.0,54.8,30.11,SW,227,0.0,0.0,83,0.00,,---,0.01,VWS V14.01,2013-01-13 23:49:00,
2013-01-13 18:54:00,60.0,54.8,30.10,SW,224,0.0,0.0,83,0.00,,---,0.01,VWS V14.01,2013-01-13 23:54:00,
2013-01-13 18:59:00,59.9,54.7,30.11,SW,233,0.0,0.0,83,0.00,,---,0.01,VWS V14.01,2013-01-13 23:59:00,
2013-01-13 19:00:00,59.9,54.7,30.11,SW,221,0.0,0.0,83,0.00,,---,0.01,VWS V14.01,2013-01-14 00:00:00,
2013-01-13 19:04:00,59.8,54.6,30.11,SW,224,0.0,0.0,83,0.00,,---,0.01,VWS V14.01,2013-01-14 00:04:00,
2013-01-13 19:09:00,59.9,54.7,30.11,SW,215,0.0,0.0,83,0.00,,---,0.01,VWS V14.01,2013-01-14 00:09:00,
2013-01-13 19:14:00,60.0,55.2,30.11,SW,232,0.0,0.0,84,0.00,,---,0.01,VWS V14.01,2013-01-14 00:14:00,
2013-01-13 19:19:00,60.0,55.2,30.11,SW,220,0.0,0.0,84,0.00,,---,0.01,VWS V14.01,2013-01-14 00:19:00,
2013-01-13 19:24:00,60.3,55.5,30.11,WSW,252,0.0,0.0,84,0.00,,---,0.01,VWS V14.01,2013-01-14 00:24:00,
2013-01-13 19:29:00,60.5,55.7,30.11,SW,228,0.0,0.0,84,0.00,,---,0.01,VWS V14.01,2013-01-14 00:29:00,
2013-01-13 19:30:00,60.6,55.8,30.10,SW,227,0.0,0.0,84,0.00,,---,0.01,VWS V14.01,2013-01-14 00:30:00,
2013-01-13 19:34:00,60.6,55.8,30.10,SW,225,0.0,0.0,84,0.00,,---,0.01,VWS V14.01,2013-01-14 00:34:00,
2013-01-13 19:39:00,60.5,55.7,30.10,SW,225,0.0,0.0,84,0.00,,---,0.01,VWS V14.01,2013-01-14 00:39:00,
2013-01-13 19:44:00,60.6,55.8,30.11,SW,225,0.0,0.0,84,0.00,,---,0.01,VWS V14.01,2013-01-14 00:44:00,
2013-01-13 19:49:00,60.6,55.8,30.11,SW,227,0.0,0.0,84,0.00,,---,0.01,VWS V14.01,2013-01-14 00:49:00,
2013-01-13 19:54:00,60.7,55.8,30.11,WSW,240,0.0,0.0,84,0.00,,---,0.01,VWS V14.01,2013-01-14 00:54:00,
2013-01-13 19:59:00,60.8,55.9,30.10,SW,223,0.0,0.0,84,0.00,,---,0.01,VWS V14.01,2013-01-14 00:59:00,
2013-01-13 20:00:00,60.8,55.9,30.10,SW,223,0.0,0.0,84,0.00,,---,0.01,VWS V14.01,2013-01-14 01:00:00,
2013-01-13 20:04:00,60.8,55.9,30.10,SW,223,0.0,0.0,84,0.00,,---,0.01,VWS V14.01,2013-01-14 01:04:00,
2013-01-13 20:09:00,60.6,55.8,30.10,SW,223,0.0,0.0,84,0.00,,---,0.01,VWS V14.01,2013-01-14 01:09:00,
2013-01-13 20:14:00,60.7,55.8,30.10,SW,223,0.0,0.0,84,0.00,,---,0.01,VWS V14.01,2013-01-14 01:14:00,
2013-01-13 20:19:00,60.8,55.9,30.11,SW,226,0.0,0.0,84,0.00,,---,0.01,VWS V14.01,2013-01-14 01:19:00,
2013-01-13 20:24:00,60.8,55.9,30.10,SW,226,0.0,0.0,84,0.00,,---,0.01,VWS V14.01,2013-01-14 01:24:00,
2013-01-13 20:29:00,60.5,55.3,30.10,SW,226,0.0,0.0,83,0.00,,---,0.01,VWS V14.01,2013-01-14 01:29:00,
2013-01-13 20:30:00,60.3,55.1,30.10,SW,226,0.0,0.0,83,0.00,,---,0.01,VWS V14.01,2013-01-14 01:30:00,
2013-01-13 20:34:00,60.3,55.5,30.10,SW,226,0.0,0.0,84,0.00,,---,0.01,VWS V14.01,2013-01-14 01:34:00,
2013-01-13 20:39:00,60.5,55.7,30.10,SW,225,0.0,0.0,84,0.00,,---,0.01,VWS V14.01,2013-01-14 01:39:00,
2013-01-13 20:44:00,60.4,55.5,30.10,SW,225,0.0,0.0,84,0.00,,---,0.01,VWS V14.01,2013-01-14 01:44:00,
2013-01-13 20:49:00,60.4,55.5,30.10,SW,225,0.0,0.0,84,0.00,,---,0.01,VWS V14.01,2013-01-14 01:49:00,
2013-01-13 20:54:00,60.4,55.5,30.10,SW,225,0.0,0.0,84,0.00,,---,0.01,VWS V14.01,2013-01-14 01:54:00,
2013-01-13 20:59:00,60.1,55.3,30.10,SW,225,0.0,0.0,84,0.00,,---,0.01,VWS V14.01,2013-01-14 01:59:00,
2013-01-13 21:00:00,60.1,55.3,30.10,SW,225,0.0,0.0,84,0.00,,---,0.01,VWS V14.01,2013-01-14 02:00:00,
2013-01-13 21:04:00,60.2,55.3,30.10,SW,225,0.0,0.0,84,0.00,,---,0.01,VWS V14.01,2013-01-14 02:04:00,
2013-01-13 21:09:00,60.3,55.5,30.10,SW,226,0.0,0.0,84,0.00,,---,0.01,VWS V14.01,2013-01-14 02:09:00,
2013-01-13 21:14:00,60.0,55.2,30.10,SW,226,0.0,0.0,84,0.00,,---,0.01,VWS V14.01,2013-01-14 02:14:00,
2013-01-13 21:19:00,59.8,55.0,30.11,SW,226,0.0,0.0,84,0.00,,---,0.01,VWS V14.01,2013-01-14 02:19:00,
2013-01-13 21:24:00,60.0,55.2,30.11,SW,226,0.0,0.0,84,0.00,,---,0.01,VWS V14.01,2013-01-14 02:24:00,
2013-01-13 21:29:00,59.9,55.1,30.11,SW,226,0.0,0.0,84,0.00,,---,0.01,VWS V14.01,2013-01-14 02:29:00,
2013-01-13 21:30:00,59.9,55.1,30.11,SW,226,0.0,0.0,84,0.00,,---,0.01,VWS V14.01,2013-01-14 02:30:00,
2013-01-13 21:34:00,59.5,54.3,30.11,SW,226,0.0,0.0,83,0.00,,---,0.01,VWS V14.01,2013-01-14 02:34:00,
2013-01-13 21:39:00,59.0,54.2,30.12,SW,226,0.0,0.0,84,0.00,,---,0.01,VWS V14.01,2013-01-14 02:39:00,
2013-01-13 21:44:00,59.0,54.2,30.12,SW,226,0.0,0.0,84,0.00,,---,0.01,VWS V14.01,2013-01-14 02:44:00,
2013-01-13 21:49:00,59.0,54.2,30.12,SW,226,0.0,0.0,84,0.00,,---,0.01,VWS V14.01,2013-01-14 02:49:00,
2013-01-13 21:54:00,58.8,54.0,30.12,SW,226,0.0,0.0,84,0.00,,---,0.01,VWS V14.01,2013-01-14 02:54:00,
2013-01-13 21:59:00,58.5,53.7,30.12,SW,226,0.0,0.0,84,0.00,,---,0.01,VWS V14.01,2013-01-14 02:59:00,
2013-01-13 22:00:00,58.5,53.7,30.12,SW,226,0.0,0.0,84,0.00,,---,0.01,VWS V14.01,2013-01-14 03:00:00,
2013-01-13 22:04:00,58.3,53.5,30.12,SW,226,0.0,0.0,84,0.00,,---,0.01,VWS V14.01,2013-01-14 03:04:00,
2013-01-13 22:09:00,58.0,53.2,30.12,SW,226,0.0,0.0,84,0.00,,---,0.01,VWS V14.01,2013-01-14 03:09:00,
2013-01-13 22:14:00,57.8,53.0,30.12,SW,226,0.0,0.0,84,0.00,,---,0.01,VWS V14.01,2013-01-14 03:14:00,
2013-01-13 22:19:00,57.6,52.8,30.13,SW,226,0.0,0.0,84,0.00,,---,0.01,VWS V14.01,2013-01-14 03:19:00,
2013-01-13 22:24:00,57.4,52.6,30.13,SW,226,0.0,0.0,84,0.00,,---,0.01,VWS V14.01,2013-01-14 03:24:00,
2013-01-13 22:29:00,57.2,52.4,30.13,SW,226,0.0,0.0,84,0.00,,---,0.01,VWS V14.01,2013-01-14 03:29:00,
2013-01-13 22:30:00,57.1,52.3,30.12,SW,226,0.0,0.0,84,0.00,,---,0.01,VWS V14.01,2013-01-14 03:30:00,
2013-01-13 22:33:00,57.1,52.3,30.12,SW,226,0.0,0.0,84,0.00,,---,0.01,VWS V14.01,2013-01-14 03:33:00,
2013-01-13 22:38:00,56.9,52.1,30.13,SW,226,0.0,0.0,84,0.00,,---,0.01,VWS V14.01,2013-01-14 03:38:00,
2013-01-13 22:43:00,56.9,52.1,30.13,SW,226,0.0,0.0,84,0.00,,---,0.01,VWS V14.01,2013-01-14 03:43:00,
2013-01-13 22:48:00,56.9,52.4,30.13,SW,226,0.0,0.0,85,0.00,,---,0.01,VWS V14.01,2013-01-14 03:48:00,
2013-01-13 22:53:00,57.0,52.5,30.13,SW,226,0.0,0.0,85,0.00,,---,0.01,VWS V14.01,2013-01-14 03:53:00,
2013-01-13 22:58:00,56.9,52.4,30.13,SW,226,0.0,0.0,85,0.00,,---,0.01,VWS V14.01,2013-01-14 03:58:00,
2013-01-13 23:00:00,56.9,52.4,30.13,SW,226,0.0,0.0,85,0.00,,---,0.01,VWS V14.01,2013-01-14 04:00:00,
2013-01-13 23:03:00,56.9,52.4,30.13,SW,226,0.0,0.0,85,0.00,,---,0.01,VWS V14.01,2013-01-14 04:03:00,
2013-01-13 23:08:00,56.8,52.0,30.13,SW,226,0.0,0.0,84,0.00,,---,0.01,VWS V14.01,2013-01-14 04:08:00,
2013-01-13 23:13:00,56.8,52.3,30.13,SW,226,0.0,0.0,85,0.00,,---,0.01,VWS V14.01,2013-01-14 04:13:00,
2013-01-13 23:18:00,56.7,52.2,30.13,SW,226,0.0,0.0,85,0.00,,---,0.01,VWS V14.01,2013-01-14 04:18:00,
2013-01-13 23:23:00,56.7,52.2,30.14,SW,226,0.0,0.0,85,0.00,,---,0.01,VWS V14.01,2013-01-14 04:23:00,
2013-01-13 23:28:00,56.6,52.2,30.14,SW,226,0.0,0.0,85,0.00,,---,0.01,VWS V14.01,2013-01-14 04:28:00,
2013-01-13 23:30:00,56.6,52.2,30.13,SW,226,0.0,0.0,85,0.00,,---,0.01,VWS V14.01,2013-01-14 04:30:00,
2013-01-13 23:33:00,56.6,52.2,30.14,SW,226,0.0,0.0,85,0.00,,---,0.01,VWS V14.01,2013-01-14 04:33:00,
2013-01-13 23:38:00,56.6,52.2,30.13,SW,226,0.0,0.0,85,0.00,,---,0.01,VWS V14.01,2013-01-14 04:38:00,
2013-01-13 23:43:00,56.5,52.0,30.13,SW,226,0.0,0.0,85,0.00,,---,0.01,VWS V14.01,2013-01-14 04:43:00,
2013-01-13 23:48:00,56.4,52.0,30.13,SW,226,0.0,0.0,85,0.00,,---,0.01,VWS V14.01,2013-01-14 04:48:00,
2013-01-13 23:53:00,56.7,52.2,30.13,SW,226,0.0,0.0,85,0.00,,---,0.01,VWS V14.01,2013-01-14 04:53:00,
2013-01-13 23:58:00,56.8,52.3,30.13,SW,226,0.0,0.0,85,0.00,,---,0.01,VWS V14.01,2013-01-14 04:58:00,